首页
METAR-TAF:

METAR-TAF

机场 :

劍橋, 英格兰

纬度: 52-12N, 经度: 000-11E, 海拔: 15米

当前天气观测

该预报发布于1小时和2分钟前的10:50 UTC
风速1节,风向多变
温度 7°C
湿度 100%
气压 1033 hPa
能見度: 4000
散云层高于300英尺
多云层高于1600英尺
轻雾

METAR: EGSC 231050Z VRB01KT 4000 BR SCT003 BKN016 07/07 Q1033

时间: 11:52 (11:52 UTC)

预报

该预报发布于53分钟前的10:59 UTC
预报有效从23日的 12点(UTC)到 23日的 19点(UTC)
风速2节,风向北转东北
能見度: 4000
散云层高于300英尺
多云层高于1000英尺
轻雾
成为
从 23日的 12点(UTC)到 23日的 15点(UTC)
能见度10公里或以上
多云层高于1500英尺
几率 30% :
短暂存在
从 23日的 15点(UTC)到 23日的 19点(UTC)
能見度: 8000
多云层高于1000英尺

TAF: EGSC 231059Z 2312/2319 02002KT 4000 BR SCT003 BKN010 BECMG 2312/2315 9999 NSW BKN015 PROB30 TEMPO 2315/2319 8000 BKN010

超过4000个机场的气象观测和天气预报(METAR&TAF报告)。

可查询的气象台以黄色和红色小点在地图上表示。

将鼠标移到小点上方,可查看气象台名称。

然后点击查看天气观测和预报。

如需切换地图:点击带黑十字的绿色按钮放大地图;点击带横线的绿色按钮缩小地图;或者点击绿色箭头查看邻近地区的地图。


METAR-TAF: